createdAt,value
2024-01-14T00:00:20.928Z,58.10
2024-01-14T00:02:47.966Z,52.47
2024-01-14T00:05:14.949Z,51.43
2024-01-14T00:07:42.214Z,51.93
2024-01-14T00:10:09.626Z,60.27
2024-01-14T00:12:36.568Z,63.73
2024-01-14T00:15:04.362Z,60.63
2024-01-14T00:17:34.049Z,52.47
2024-01-14T00:20:02.150Z,55.33
2024-01-14T00:22:29.194Z,57.57
2024-01-14T00:24:56.122Z,57.13
2024-01-14T00:27:23.261Z,52.17
2024-01-14T00:29:51.141Z,60.60
2024-01-14T00:32:18.294Z,58.67
2024-01-14T00:34:45.363Z,51.97
2024-01-14T00:37:12.333Z,59.57
2024-01-14T00:39:39.978Z,61.13
2024-01-14T00:42:08.082Z,56.03
2024-01-14T00:44:35.300Z,55.63
2024-01-14T00:47:03.826Z,54.20
2024-01-14T00:49:31.144Z,55.27
2024-01-14T00:51:58.261Z,53.47
2024-01-14T00:54:25.446Z,59.40
2024-01-14T00:56:53.161Z,51.27
2024-01-14T00:59:20.109Z,53.03
2024-01-14T01:01:48.071Z,51.17
2024-01-14T01:04:15.123Z,57.23
2024-01-14T01:06:42.223Z,57.67
2024-01-14T01:09:09.357Z,53.67
2024-01-14T01:11:36.350Z,58.40
2024-01-14T01:14:03.234Z,59.20
2024-01-14T01:16:30.446Z,55.07
2024-01-14T01:18:57.622Z,61.27
2024-01-14T01:21:24.823Z,57.63
2024-01-14T01:23:51.934Z,54.63
2024-01-14T01:26:18.961Z,59.63
2024-01-14T01:28:45.874Z,57.10
2024-01-14T01:31:12.992Z,53.87
2024-01-14T01:33:40.303Z,53.30
2024-01-14T01:36:07.856Z,58.70
2024-01-14T01:38:35.541Z,60.17
2024-01-14T01:41:02.552Z,61.17
2024-01-14T01:43:29.517Z,60.27
2024-01-14T01:45:58.096Z,55.47
2024-01-14T01:48:26.025Z,57.00
2024-01-14T01:50:55.838Z,59.40
2024-01-14T01:53:25.456Z,54.60
2024-01-14T01:55:53.981Z,60.30
2024-01-14T01:58:21.737Z,58.60
2024-01-14T02:00:51.335Z,56.30
2024-01-14T02:03:20.676Z,57.17
2024-01-14T02:05:53.582Z,53.83
2024-01-14T02:08:20.659Z,54.50
2024-01-14T02:10:47.564Z,50.30
2024-01-14T02:13:16.025Z,54.93
2024-01-14T02:15:43.043Z,55.70
2024-01-14T02:18:10.129Z,56.30
2024-01-14T02:20:37.140Z,57.73
2024-01-14T02:23:09.867Z,53.30
2024-01-14T02:25:36.971Z,57.57
2024-01-14T02:28:04.939Z,53.87
2024-01-14T02:30:33.490Z,55.23
2024-01-14T02:33:00.825Z,54.13
2024-01-14T02:35:27.927Z,54.80
2024-01-14T02:37:56.099Z,61.33
2024-01-14T02:40:23.194Z,57.77
2024-01-14T02:42:50.164Z,53.53
2024-01-14T02:45:17.538Z,53.43
2024-01-14T02:47:44.574Z,56.53
2024-01-14T02:50:11.637Z,59.30
2024-01-14T02:52:38.538Z,54.03
2024-01-14T02:55:06.036Z,55.57
2024-01-14T02:57:33.747Z,54.57
2024-01-14T03:00:00.924Z,60.50
2024-01-14T03:02:27.893Z,57.63
2024-01-14T03:04:54.847Z,54.47
2024-01-14T03:07:21.741Z,51.13
2024-01-14T03:09:48.703Z,53.73
2024-01-14T03:12:15.826Z,49.23
2024-01-14T03:14:42.849Z,47.77
2024-01-14T03:17:09.905Z,53.17
2024-01-14T03:19:36.932Z,44.87
2024-01-14T03:22:03.976Z,49.00
2024-01-14T03:24:31.111Z,57.77
2024-01-14T03:26:58.130Z,51.13
2024-01-14T03:29:25.044Z,47.40
2024-01-14T03:31:52.100Z,47.53
2024-01-14T03:34:19.225Z,52.03
2024-01-14T03:36:46.360Z,48.00
2024-01-14T03:39:13.282Z,52.87
2024-01-14T03:41:40.253Z,43.87
2024-01-14T03:44:08.100Z,51.90
2024-01-14T03:46:35.119Z,51.70
2024-01-14T03:49:02.139Z,46.17
2024-01-14T03:51:31.816Z,46.50
2024-01-14T03:53:58.811Z,47.57
2024-01-14T03:56:25.790Z,44.50
2024-01-14T03:58:52.666Z,49.40
2024-01-14T04:01:20.026Z,46.67
2024-01-14T04:03:47.295Z,49.60
2024-01-14T04:06:14.515Z,45.43
2024-01-14T04:08:41.709Z,48.60
2024-01-14T04:11:09.714Z,47.03
2024-01-14T04:13:36.842Z,47.33
2024-01-14T04:16:04.091Z,53.10
2024-01-14T04:18:31.457Z,50.23
2024-01-14T04:20:59.023Z,49.70
2024-01-14T04:23:26.234Z,42.97
2024-01-14T04:25:53.574Z,44.13
2024-01-14T04:28:20.640Z,44.83
2024-01-14T04:30:47.748Z,44.53
2024-01-14T04:33:14.849Z,46.60
2024-01-14T04:35:41.968Z,46.60
2024-01-14T04:38:08.883Z,45.17
2024-01-14T04:40:35.864Z,45.33
2024-01-14T04:43:03.153Z,48.80
2024-01-14T04:45:30.453Z,47.80
2024-01-14T04:47:57.523Z,46.37
2024-01-14T04:50:24.721Z,47.63
2024-01-14T04:52:51.812Z,41.57
2024-01-14T04:55:18.873Z,43.97
2024-01-14T04:57:46.252Z,40.20
2024-01-14T05:00:14.087Z,44.40
2024-01-14T05:02:41.033Z,42.37
2024-01-14T05:05:08.538Z,36.53
2024-01-14T05:07:35.535Z,44.93
2024-01-14T05:10:02.841Z,38.87
2024-01-14T05:12:29.826Z,36.03
2024-01-14T05:14:56.861Z,43.77
2024-01-14T05:17:26.061Z,40.37
2024-01-14T05:19:54.028Z,40.57
2024-01-14T05:22:21.728Z,40.07
2024-01-14T05:24:48.786Z,37.17
2024-01-14T05:27:16.200Z,36.17
2024-01-14T05:29:46.477Z,37.30
2024-01-14T05:32:15.995Z,40.87
2024-01-14T05:34:45.796Z,40.17
2024-01-14T05:37:13.371Z,38.40
2024-01-14T05:39:40.349Z,37.60
2024-01-14T05:42:07.424Z,41.53
2024-01-14T05:44:34.705Z,38.73
2024-01-14T05:47:01.615Z,37.10
2024-01-14T05:49:28.746Z,42.80
2024-01-14T05:51:55.763Z,43.17
2024-01-14T05:54:22.743Z,39.90
2024-01-14T05:56:49.683Z,46.37
2024-01-14T05:59:16.719Z,40.33
2024-01-14T06:01:43.667Z,39.90
2024-01-14T06:04:10.767Z,44.37
2024-01-14T06:06:39.032Z,46.33
2024-01-14T06:09:06.214Z,40.23
2024-01-14T06:11:33.361Z,42.63
2024-01-14T06:14:00.372Z,43.77
2024-01-14T06:16:27.344Z,41.00
2024-01-14T06:18:55.589Z,38.67
2024-01-14T06:21:22.839Z,39.70
2024-01-14T06:23:50.658Z,40.00
2024-01-14T06:26:18.905Z,38.13
2024-01-14T06:28:50.170Z,40.83
2024-01-14T06:31:18.680Z,40.17
2024-01-14T06:33:46.202Z,40.87
2024-01-14T06:36:13.807Z,35.43
2024-01-14T06:38:41.028Z,36.10
2024-01-14T06:41:10.866Z,39.77
2024-01-14T06:43:38.876Z,33.03
2024-01-14T06:46:06.405Z,39.90
2024-01-14T06:48:33.791Z,33.63
2024-01-14T06:51:03.992Z,32.27
2024-01-14T06:53:31.081Z,33.33
2024-01-14T06:55:58.309Z,36.97
2024-01-14T06:58:25.258Z,37.03
2024-01-14T07:00:52.403Z,34.33
2024-01-14T07:03:19.687Z,39.53
2024-01-14T07:05:46.870Z,41.47
2024-01-14T07:08:13.897Z,41.53
2024-01-14T07:10:40.799Z,38.07
2024-01-14T07:13:07.770Z,39.13
2024-01-14T07:15:34.836Z,36.60
2024-01-14T07:18:03.707Z,38.83
2024-01-14T07:20:31.049Z,40.00
2024-01-14T07:23:39.577Z,38.63
2024-01-14T07:25:45.194Z,39.77
2024-01-14T07:28:12.135Z,39.50
2024-01-14T07:30:39.219Z,39.37
2024-01-14T07:33:06.512Z,41.03
2024-01-14T07:35:34.129Z,41.00
2024-01-14T07:38:01.143Z,44.10
2024-01-14T07:40:30.974Z,41.40
2024-01-14T07:42:57.923Z,41.67
2024-01-14T07:45:24.901Z,38.50
2024-01-14T07:47:51.973Z,36.63
2024-01-14T07:50:18.897Z,37.13
2024-01-14T07:52:46.028Z,39.13
2024-01-14T07:55:13.094Z,36.90
2024-01-14T07:57:40.107Z,37.10
2024-01-14T08:00:08.076Z,32.87
2024-01-14T08:02:38.803Z,32.30
2024-01-14T08:05:06.214Z,32.47
2024-01-14T08:07:33.197Z,34.23
2024-01-14T08:10:00.570Z,31.73
2024-01-14T08:12:27.622Z,29.23
2024-01-14T08:14:54.705Z,30.33
2024-01-14T08:17:21.689Z,30.93
2024-01-14T08:19:49.100Z,31.60
2024-01-14T08:22:19.370Z,26.07
2024-01-14T08:24:46.731Z,29.37
2024-01-14T08:27:13.709Z,31.20
2024-01-14T08:29:41.667Z,33.10
2024-01-14T08:32:08.826Z,35.67
2024-01-14T08:34:36.075Z,34.70
2024-01-14T08:37:03.039Z,34.80
2024-01-14T08:39:30.047Z,32.77
2024-01-14T08:41:57.771Z,34.07
2024-01-14T08:44:28.684Z,35.80
2024-01-14T08:46:57.189Z,35.87
2024-01-14T08:49:30.853Z,37.47
2024-01-14T08:51:58.152Z,37.53
2024-01-14T08:54:25.302Z,32.73
2024-01-14T08:56:52.280Z,40.07
2024-01-14T08:59:19.912Z,37.63
2024-01-14T09:01:46.887Z,32.13
2024-01-14T09:04:13.952Z,31.23
2024-01-14T09:06:41.362Z,34.87
2024-01-14T09:09:10.632Z,35.43
2024-01-14T09:11:37.620Z,33.50
2024-01-14T09:14:05.006Z,38.57
2024-01-14T09:16:32.410Z,36.57
2024-01-14T09:18:59.702Z,36.70
2024-01-14T09:21:26.767Z,33.60
2024-01-14T09:23:53.762Z,45.97
2024-01-14T09:26:20.732Z,39.17
2024-01-14T09:28:47.958Z,35.07
2024-01-14T09:31:15.115Z,37.40
2024-01-14T09:33:44.815Z,38.53
2024-01-14T09:36:12.368Z,36.57
2024-01-14T09:38:39.444Z,39.77
2024-01-14T09:42:08.377Z,35.17
2024-01-14T09:44:35.671Z,39.23
2024-01-14T09:47:04.944Z,39.37
2024-01-14T09:49:32.182Z,40.83
2024-01-14T09:52:01.744Z,35.87
2024-01-14T09:54:29.896Z,37.23
2024-01-14T09:57:02.716Z,38.37
2024-01-14T09:59:37.979Z,39.13
2024-01-14T10:02:07.313Z,43.27
2024-01-14T10:04:34.462Z,40.80
2024-01-14T10:07:01.754Z,35.73
2024-01-14T10:09:28.973Z,38.50
2024-01-14T10:11:57.772Z,44.73
2024-01-14T10:14:28.556Z,47.17
2024-01-14T10:16:59.085Z,40.33
2024-01-14T10:19:26.235Z,42.00
2024-01-14T10:22:14.221Z,37.33
2024-01-14T10:24:53.925Z,37.53
2024-01-14T10:27:35.100Z,38.10
2024-01-14T10:30:12.816Z,43.03
2024-01-14T10:33:15.969Z,38.40
2024-01-14T10:35:32.436Z,36.60
2024-01-14T10:38:00.234Z,39.20
2024-01-14T10:40:27.868Z,38.93
2024-01-14T10:42:55.429Z,40.57
2024-01-14T10:45:23.044Z,38.83
2024-01-14T10:47:57.423Z,35.67
2024-01-14T10:50:34.414Z,36.80
2024-01-14T10:53:22.462Z,35.40
2024-01-14T10:55:56.544Z,39.13
2024-01-14T10:58:31.147Z,37.43
2024-01-14T11:01:01.258Z,34.90
2024-01-14T11:03:30.558Z,38.50
2024-01-14T11:05:59.207Z,40.60
2024-01-14T11:08:27.665Z,35.27
2024-01-14T11:10:56.190Z,37.03
2024-01-14T11:13:48.884Z,35.70
2024-01-14T11:16:29.682Z,39.60
2024-01-14T11:19:02.506Z,35.03
2024-01-14T11:22:07.411Z,33.70
2024-01-14T11:24:41.828Z,30.47
2024-01-14T11:27:16.185Z,36.00
2024-01-14T11:29:49.648Z,31.63
2024-01-14T11:32:22.181Z,31.37
2024-01-14T11:34:54.145Z,34.13
2024-01-14T11:37:30.533Z,36.80
2024-01-14T11:40:41.620Z,36.60
2024-01-14T11:43:09.414Z,33.00
2024-01-14T11:45:39.398Z,33.60
2024-01-14T11:48:10.306Z,39.10
2024-01-14T11:50:39.017Z,32.07
2024-01-14T11:53:10.608Z,34.13
2024-01-14T11:55:37.849Z,36.63
2024-01-14T11:58:15.359Z,36.70
2024-01-14T12:00:44.845Z,45.73
2024-01-14T12:03:18.058Z,39.40
2024-01-14T12:05:45.759Z,34.90
2024-01-14T12:08:14.810Z,37.17
2024-01-14T12:10:42.783Z,36.60
2024-01-14T12:13:10.840Z,37.17
2024-01-14T12:15:39.647Z,36.50
2024-01-14T12:18:08.680Z,38.47
2024-01-14T12:20:36.156Z,34.23
2024-01-14T12:23:07.561Z,35.70
2024-01-14T12:25:36.642Z,36.07
2024-01-14T12:28:04.424Z,36.63
2024-01-14T12:30:36.335Z,35.10
2024-01-14T12:33:12.086Z,31.80
2024-01-14T12:35:40.416Z,33.73
2024-01-14T12:38:09.968Z,34.40
2024-01-14T12:40:38.689Z,33.93
2024-01-14T12:43:10.760Z,33.63
2024-01-14T12:45:51.010Z,33.67
2024-01-14T12:48:23.451Z,33.33
2024-01-14T12:50:59.820Z,32.30
2024-01-14T12:53:30.566Z,31.60
2024-01-14T12:56:16.125Z,31.47
2024-01-14T12:58:43.282Z,33.50
2024-01-14T13:01:10.846Z,34.40
2024-01-14T13:03:40.747Z,33.00
2024-01-14T13:06:08.221Z,34.30
2024-01-14T13:08:35.994Z,32.23
2024-01-14T13:11:03.490Z,28.10
2024-01-14T13:13:30.606Z,33.00
2024-01-14T13:15:57.976Z,29.10
2024-01-14T13:18:25.620Z,32.90
2024-01-14T13:20:52.686Z,29.90
2024-01-14T13:23:19.694Z,26.97
2024-01-14T13:25:46.706Z,28.77
2024-01-14T13:28:14.764Z,30.40
2024-01-14T13:30:43.615Z,28.20
2024-01-14T13:33:11.018Z,25.53
2024-01-14T13:35:38.152Z,25.93
2024-01-14T13:38:05.169Z,27.20
2024-01-14T13:40:33.114Z,27.40
2024-01-14T13:43:00.650Z,25.23
2024-01-14T13:45:32.041Z,29.30
2024-01-14T13:47:59.927Z,30.97
2024-01-14T13:50:26.947Z,33.23
2024-01-14T13:52:54.200Z,27.83
2024-01-14T13:55:21.185Z,26.67
2024-01-14T13:57:50.570Z,29.00
2024-01-14T14:00:18.629Z,27.30
2024-01-14T14:02:45.846Z,26.50
2024-01-14T14:05:13.900Z,27.33
2024-01-14T14:07:41.243Z,31.20
2024-01-14T14:10:10.557Z,29.13
2024-01-14T14:12:38.801Z,30.47
2024-01-14T14:15:06.856Z,27.43
2024-01-14T14:17:34.061Z,29.97
2024-01-14T14:20:01.849Z,27.87
2024-01-14T14:22:28.922Z,27.83
2024-01-14T14:24:56.215Z,29.33
2024-01-14T14:27:23.374Z,28.43
2024-01-14T14:29:50.338Z,28.63
2024-01-14T14:32:17.473Z,29.00
2024-01-14T14:34:45.219Z,28.37
2024-01-14T14:37:12.347Z,28.07
2024-01-14T14:39:39.357Z,28.13
2024-01-14T14:42:08.262Z,27.73
2024-01-14T14:44:35.828Z,27.20
2024-01-14T14:47:03.259Z,25.20
2024-01-14T14:49:30.248Z,26.03
2024-01-14T14:51:57.323Z,28.40
2024-01-14T14:54:24.515Z,27.93
2024-01-14T14:56:51.637Z,27.03
2024-01-14T14:59:20.864Z,32.90
2024-01-14T15:01:49.293Z,30.80
2024-01-14T15:04:17.171Z,30.13
2024-01-14T15:06:46.496Z,29.47
2024-01-14T15:09:15.992Z,29.13
2024-01-14T15:11:43.394Z,27.43
2024-01-14T15:14:11.530Z,30.10
2024-01-14T15:16:40.861Z,27.57
2024-01-14T15:19:08.037Z,31.43
2024-01-14T15:21:35.323Z,27.93
2024-01-14T15:24:02.808Z,27.87
2024-01-14T15:26:30.068Z,30.03
2024-01-14T15:28:57.958Z,27.97
2024-01-14T15:31:25.117Z,29.80
2024-01-14T15:33:52.468Z,30.33
2024-01-14T15:36:21.038Z,28.63
2024-01-14T15:38:48.744Z,26.67
2024-01-14T15:41:16.539Z,32.13
2024-01-14T15:43:43.908Z,28.90
2024-01-14T15:46:11.455Z,31.27
2024-01-14T15:48:41.269Z,31.27
2024-01-14T15:51:12.724Z,28.83
2024-01-14T15:53:43.223Z,29.67
2024-01-14T15:56:10.887Z,26.03
2024-01-14T15:58:39.935Z,28.87
2024-01-14T16:01:13.492Z,34.60
2024-01-14T16:03:45.022Z,31.53
2024-01-14T16:06:15.678Z,30.57
2024-01-14T16:08:46.206Z,28.97
2024-01-14T16:11:14.379Z,28.33
2024-01-14T16:13:41.489Z,27.10
2024-01-14T16:16:08.681Z,31.00
2024-01-14T16:18:37.072Z,28.67
2024-01-14T16:21:07.052Z,30.37
2024-01-14T16:23:40.103Z,25.97
2024-01-14T16:26:09.148Z,31.53
2024-01-14T16:28:36.662Z,31.80
2024-01-14T16:31:11.437Z,29.83
2024-01-14T16:33:48.235Z,31.60
2024-01-14T16:36:17.662Z,31.63
2024-01-14T16:38:45.983Z,30.37
2024-01-14T16:41:15.724Z,32.63
2024-01-14T16:43:45.050Z,30.53
2024-01-14T16:46:12.565Z,28.73
2024-01-14T16:48:39.602Z,33.70
2024-01-14T16:51:11.903Z,33.77
2024-01-14T16:53:41.482Z,28.97
2024-01-14T16:56:13.825Z,32.67
2024-01-14T16:58:43.154Z,31.93
2024-01-14T17:01:15.937Z,32.13
2024-01-14T17:03:50.836Z,34.43
2024-01-14T17:06:19.707Z,33.80
2024-01-14T17:08:48.647Z,30.47
2024-01-14T17:11:20.695Z,32.33
2024-01-14T17:13:48.480Z,30.57
2024-01-14T17:16:27.217Z,31.00
2024-01-14T17:18:57.395Z,30.70
2024-01-14T17:21:26.488Z,32.10
2024-01-14T17:23:53.753Z,30.83
2024-01-14T17:26:21.627Z,29.73
2024-01-14T17:28:48.978Z,27.73
2024-01-14T17:31:17.784Z,28.10
2024-01-14T17:33:52.116Z,29.33
2024-01-14T17:36:22.332Z,32.37
2024-01-14T17:38:50.411Z,28.60
2024-01-14T17:41:19.334Z,29.40
2024-01-14T17:43:46.758Z,31.57
2024-01-14T17:46:14.220Z,31.17
2024-01-14T17:48:44.301Z,30.67
2024-01-14T17:51:12.948Z,29.07
2024-01-14T17:53:42.628Z,31.40
2024-01-14T17:56:10.216Z,31.20
2024-01-14T17:58:37.468Z,30.57
2024-01-14T18:01:07.262Z,30.27
2024-01-14T18:03:34.768Z,37.47
2024-01-14T18:06:03.272Z,36.20
2024-01-14T18:08:30.560Z,33.97
2024-01-14T18:10:57.605Z,34.47
2024-01-14T18:13:25.826Z,29.13
2024-01-14T18:15:53.232Z,33.53
2024-01-14T18:18:20.790Z,32.23
2024-01-14T18:20:48.517Z,33.27
2024-01-14T18:23:16.082Z,31.30
2024-01-14T18:25:44.827Z,34.17
2024-01-14T18:28:13.737Z,31.20
2024-01-14T18:30:41.379Z,37.97
2024-01-14T18:33:11.847Z,35.87
2024-01-14T18:35:46.482Z,34.53
2024-01-14T18:38:16.138Z,35.83
2024-01-14T18:40:43.831Z,34.17
2024-01-14T18:43:12.666Z,36.67
2024-01-14T18:45:40.184Z,32.47
2024-01-14T18:48:08.546Z,33.70
2024-01-14T18:50:36.507Z,36.20
2024-01-14T18:53:05.986Z,35.63
2024-01-14T18:55:36.188Z,34.17
2024-01-14T18:58:03.583Z,36.00
2024-01-14T19:00:31.172Z,35.17
2024-01-14T19:02:58.366Z,31.03
2024-01-14T19:05:26.410Z,33.83
2024-01-14T19:07:53.651Z,34.60
2024-01-14T19:10:20.632Z,32.50
2024-01-14T19:12:47.767Z,34.67
2024-01-14T19:15:14.816Z,33.57
2024-01-14T19:17:41.909Z,36.37
2024-01-14T19:20:09.741Z,40.73
2024-01-14T19:22:37.026Z,37.07
2024-01-14T19:25:07.544Z,37.87
2024-01-14T19:27:36.567Z,37.60
2024-01-14T19:30:04.148Z,39.10
2024-01-14T19:32:31.393Z,36.17
2024-01-14T19:34:58.532Z,35.50
2024-01-14T19:37:28.020Z,35.87
2024-01-14T19:39:55.109Z,36.30
2024-01-14T19:42:22.857Z,39.83
2024-01-14T19:44:50.095Z,43.37
2024-01-14T19:47:17.694Z,36.10
2024-01-14T19:49:46.915Z,42.37
2024-01-14T19:52:17.784Z,38.30
2024-01-14T19:54:44.818Z,33.63
2024-01-14T19:57:11.882Z,40.13
2024-01-14T19:59:38.973Z,40.43
2024-01-14T20:02:06.312Z,41.00
2024-01-14T20:04:33.252Z,35.93
2024-01-14T20:07:00.306Z,36.77
2024-01-14T20:09:27.541Z,36.33
2024-01-14T20:11:57.725Z,35.30
2024-01-14T20:14:24.785Z,37.00
2024-01-14T20:16:52.664Z,38.53
2024-01-14T20:19:20.776Z,38.03
2024-01-14T20:21:49.281Z,38.13
2024-01-14T20:24:16.433Z,39.80
2024-01-14T20:26:43.984Z,37.40
2024-01-14T20:29:11.047Z,39.10
2024-01-14T20:31:38.591Z,39.40
2024-01-14T20:34:06.451Z,38.83
2024-01-14T20:36:33.847Z,39.00
2024-01-14T20:39:01.293Z,39.93
2024-01-14T20:41:28.388Z,41.07
2024-01-14T20:43:55.330Z,40.57
2024-01-14T20:46:22.218Z,43.40
2024-01-14T20:48:49.445Z,43.57
2024-01-14T20:51:17.252Z,40.70
2024-01-14T20:53:44.764Z,40.90
2024-01-14T20:56:12.396Z,40.67
2024-01-14T20:58:39.462Z,40.93
2024-01-14T21:01:06.827Z,40.20
2024-01-14T21:03:34.677Z,40.73
2024-01-14T21:06:02.024Z,41.13
2024-01-14T21:08:29.250Z,42.07
2024-01-14T21:10:56.343Z,40.70
2024-01-14T21:13:25.679Z,43.07
2024-01-14T21:15:53.123Z,38.40
2024-01-14T21:18:24.513Z,40.13
2024-01-14T21:20:52.869Z,38.20
2024-01-14T21:23:20.328Z,37.13
2024-01-14T21:25:47.972Z,36.77
2024-01-14T21:28:15.075Z,39.33
2024-01-14T21:30:42.164Z,35.93
2024-01-14T21:33:09.440Z,38.93
2024-01-14T21:35:36.607Z,38.03
2024-01-14T21:38:04.461Z,38.07
2024-01-14T21:40:31.574Z,39.10
2024-01-14T21:42:58.619Z,35.27
2024-01-14T21:45:25.758Z,36.20
2024-01-14T21:47:52.784Z,37.53
2024-01-14T21:50:19.865Z,36.57
2024-01-14T21:52:46.727Z,33.83
2024-01-14T21:55:15.093Z,34.37
2024-01-14T21:57:42.691Z,33.33
2024-01-14T22:00:10.911Z,34.57
2024-01-14T22:02:38.483Z,29.40
2024-01-14T22:05:06.639Z,31.43
2024-01-14T22:07:34.002Z,29.43
2024-01-14T22:10:01.105Z,28.77
2024-01-14T22:12:28.523Z,25.90
2024-01-14T22:14:56.173Z,27.37
2024-01-14T22:17:23.211Z,27.43
2024-01-14T22:19:50.968Z,25.30
2024-01-14T22:22:18.108Z,26.80
2024-01-14T22:24:45.985Z,27.77
2024-01-14T22:27:13.330Z,25.10
2024-01-14T22:29:40.311Z,23.53
2024-01-14T22:32:07.543Z,24.73
2024-01-14T22:34:35.212Z,26.17
2024-01-14T22:37:02.346Z,27.23
2024-01-14T22:39:30.477Z,27.33
2024-01-14T22:41:57.908Z,22.47
2024-01-14T22:44:25.446Z,24.37
2024-01-14T22:46:52.561Z,26.60
2024-01-14T22:49:19.649Z,26.03
2024-01-14T22:51:47.258Z,26.37
2024-01-14T22:54:15.035Z,28.40
2024-01-14T22:56:42.336Z,28.13
2024-01-14T22:59:09.718Z,25.10
2024-01-14T23:01:37.158Z,28.17
2024-01-14T23:04:08.949Z,28.67
2024-01-14T23:06:36.485Z,30.03
2024-01-14T23:09:03.908Z,33.27
2024-01-14T23:11:31.334Z,28.47
2024-01-14T23:13:58.262Z,31.40
2024-01-14T23:16:25.171Z,32.23
2024-01-14T23:18:52.233Z,33.63
2024-01-14T23:21:19.430Z,33.13
2024-01-14T23:23:46.589Z,28.47
2024-01-14T23:26:13.606Z,29.97
2024-01-14T23:28:43.608Z,29.73
2024-01-14T23:31:10.815Z,34.10
2024-01-14T23:33:39.556Z,31.83
2024-01-14T23:36:06.920Z,28.00
2024-01-14T23:38:33.925Z,27.47
2024-01-14T23:41:00.930Z,26.53
2024-01-14T23:43:28.212Z,24.17
2024-01-14T23:45:55.587Z,22.80
2024-01-14T23:48:22.747Z,26.47
2024-01-14T23:50:49.800Z,28.60
2024-01-14T23:53:16.883Z,29.37
2024-01-14T23:55:43.840Z,26.13
2024-01-14T23:58:13.638Z,30.80
